Time;durP1;ratioP1;P1;durP2;ratioP2;P2;SDS_P1;SDS_P2;PMS_P1;PMS_P2;Temp;Humidity;BMP_temperature;BMP_pressure;BME280_temperature;BME280_humidity;BME280_pressure;Samples;Min_cycle;Max_cycle;Signal;HPM_P1;HPM_P2
2022/04/28 00:01:30;;;;;;;;;56.00;44.00;;;;;10.75;100.00;99842.91;5068138;28;8976;-77
2022/04/28 00:03:59;;;;;;;;;48.75;40.50;;;;;10.89;100.00;99843.81;5068983;28;8844;-77
2022/04/28 00:06:27;;;;;;;;;56.00;46.25;;;;;10.84;100.00;99840.31;5069063;28;8844;-78
2022/04/28 00:08:56;;;;;;;;;53.25;42.75;;;;;10.76;100.00;99847.25;5030611;28;8849;-76
2022/04/28 00:11:25;;;;;;;;;59.25;46.25;;;;;10.81;100.00;99849.88;5037343;28;9617;-76
2022/04/28 00:13:54;;;;;;;;;58.00;48.25;;;;;10.70;100.00;99853.31;5087903;28;9003;-75
2022/04/28 00:16:24;;;;;;;;;45.75;39.00;;;;;10.67;100.00;99855.91;5087725;28;8845;-76
2022/04/28 00:18:53;;;;;;;;;53.50;44.00;;;;;10.79;100.00;99852.47;5071744;28;8931;-77
2022/04/28 00:21:21;;;;;;;;;52.00;43.00;;;;;10.96;100.00;99846.44;5017770;28;8940;-76
2022/04/28 00:23:50;;;;;;;;;59.25;43.25;;;;;11.03;100.00;99843.84;5066540;28;8940;-77
2022/04/28 00:26:20;;;;;;;;;56.50;43.50;;;;;11.27;100.00;99856.09;5051414;28;8914;-77
2022/04/28 00:28:49;;;;;;;;;49.00;42.75;;;;;11.14;100.00;99848.25;5067813;28;8844;-77
2022/04/28 00:31:17;;;;;;;;;54.75;44.25;;;;;10.83;100.00;99842.91;5017572;28;8875;-77
2022/04/28 00:33:48;;;;;;;;;58.00;47.00;;;;;10.86;100.00;99846.41;5051194;28;8836;-79
2022/04/28 00:36:16;;;;;;;;;54.50;45.25;;;;;10.76;100.00;99844.66;5045809;28;8840;-78
2022/04/28 00:38:45;;;;;;;;;57.00;46.00;;;;;10.89;100.00;99840.34;5044855;28;8855;-78
2022/04/28 00:41:14;;;;;;;;;53.25;45.75;;;;;10.84;100.00;99845.53;5046459;28;8855;-78
2022/04/28 00:43:50;;;;;;;;;55.75;45.25;;;;;10.73;100.00;99844.63;5013298;28;8839;-77
2022/04/28 00:46:19;;;;;;;;;57.75;46.25;;;;;10.84;100.00;99839.47;5013813;28;8843;-78
2022/04/28 00:51:37;;;;;;;;;55.50;43.00;;;;;10.76;100.00;99834.22;5046571;28;8921;-79
2022/04/28 00:54:06;;;;;;;;;52.00;42.25;;;;;10.67;100.00;99837.66;5029625;28;8859;-79
2022/04/28 00:56:35;;;;;;;;;55.75;47.25;;;;;10.87;100.00;99839.47;5029433;28;8912;-79
2022/04/28 00:59:04;;;;;;;;;53.50;44.50;;;;;10.72;100.00;99846.38;5013234;28;8855;-80
2022/04/28 01:01:34;;;;;;;;;47.00;42.50;;;;;10.83;100.00;99841.22;4981174;28;9569;-79
2022/04/28 01:04:05;;;;;;;;;54.75;43.50;;;;;10.98;100.00;99837.75;5045754;28;8878;-79
2022/04/28 01:06:34;;;;;;;;;54.25;44.75;;;;;11.17;100.00;99835.19;5016075;28;8849;-78
2022/04/28 01:09:02;;;;;;;;;53.25;44.75;;;;;11.25;100.00;99836.94;5070160;28;8903;-77
2022/04/28 01:11:33;;;;;;;;;53.00;43.00;;;;;10.77;100.00;99835.94;5050034;28;8859;-78
2022/04/28 01:14:15;;;;;;;;;54.25;42.75;;;;;10.53;100.00;99841.97;5066992;28;8856;-79
2022/04/28 01:16:49;;;;;;;;;53.75;43.75;;;;;10.49;100.00;99834.97;5017868;28;8951;-77
2022/04/28 01:19:19;;;;;;;;;51.75;39.00;;;;;10.72;100.00;99832.47;5051055;28;8860;-78
2022/04/28 01:21:52;;;;;;;;;52.50;43.75;;;;;10.48;100.00;99830.63;5045756;28;9614;-77
2022/04/28 01:24:20;;;;;;;;;52.50;42.75;;;;;10.71;100.00;99830.72;5028910;28;8851;-76
2022/04/28 01:26:51;;;;;;;;;50.75;43.25;;;;;10.71;100.00;99826.34;5030355;28;8921;-79
2022/04/28 01:29:21;;;;;;;;;51.00;42.50;;;;;10.72;100.00;99828.13;5049006;28;8861;-78
2022/04/28 01:31:49;;;;;;;;;52.50;40.25;;;;;10.29;100.00;99825.28;5049420;28;8992;-78
2022/04/28 01:34:19;;;;;;;;;56.00;44.75;;;;;10.39;100.00;99825.38;5032970;28;8826;-79
2022/04/28 01:36:47;;;;;;;;;50.75;41.50;;;;;10.40;100.00;99827.13;5070034;28;8833;-78
2022/04/28 01:39:18;;;;;;;;;41.50;36.50;;;;;10.54;100.00;99822.81;5053538;28;8842;-79
2022/04/28 01:41:48;;;;;;;;;44.75;40.75;;;;;10.60;100.00;99819.38;5029495;28;8846;-78
2022/04/28 01:44:18;;;;;;;;;48.25;38.75;;;;;10.57;100.00;99821.97;5029614;28;8888;-79
2022/04/28 01:46:47;;;;;;;;;48.75;40.25;;;;;10.56;100.00;99828.91;5028967;28;8845;-79
2022/04/28 01:49:45;;;;;;;;;46.50;41.50;;;;;10.54;100.00;99831.50;4996573;28;8927;-78
2022/04/28 01:55:22;;;;;;;;;44.50;38.25;;;;;10.64;100.00;99821.13;4999527;28;8880;-78
2022/04/28 01:57:59;;;;;;;;;45.75;39.00;;;;;10.54;100.00;99825.44;4992932;28;9027;-78
2022/04/28 02:00:47;;;;;;;;;44.25;39.25;;;;;10.65;100.00;99818.53;4993294;28;8857;-78
2022/04/28 02:03:19;;;;;;;;;47.25;40.25;;;;;10.72;100.00;99809.00;4991800;28;8970;-78
2022/04/28 02:05:49;;;;;;;;;43.00;37.75;;;;;10.69;100.00;99816.81;4976774;28;8833;-79
2022/04/28 02:08:18;;;;;;;;;42.25;38.25;;;;;10.71;100.00;99815.06;4976904;28;8865;-80
2022/04/28 02:10:48;;;;;;;;;42.75;36.50;;;;;10.73;100.00;99810.72;4992967;28;8876;-80
2022/04/28 02:13:46;;;;;;;;;41.00;37.50;;;;;10.62;100.00;99817.63;4987945;28;8832;-80
2022/04/28 02:16:41;;;;;;;;;40.25;37.50;;;;;10.47;100.00;99818.44;5015723;28;8934;-80
2022/04/28 02:19:27;;;;;;;;;37.75;36.00;;;;;10.30;100.00;99819.25;5047661;28;8866;-81
2022/04/28 02:21:56;;;;;;;;;41.25;37.00;;;;;10.47;100.00;99816.72;5031944;28;8855;-78
2022/04/28 02:24:25;;;;;;;;;37.50;34.25;;;;;10.44;100.00;99819.31;4967623;28;8867;-79
2022/04/28 02:26:55;;;;;;;;;40.00;34.50;;;;;10.58;100.00;99815.88;4999683;28;8824;-79
2022/04/28 02:29:24;;;;;;;;;38.75;37.00;;;;;10.52;100.00;99812.38;5024416;28;8904;-78
2022/04/28 02:31:53;;;;;;;;;43.75;38.75;;;;;10.63;100.00;99814.19;5069762;28;8868;-79
2022/04/28 02:34:23;;;;;;;;;33.50;31.75;;;;;10.51;100.00;99821.09;5052713;28;8848;-78
2022/04/28 02:36:53;;;;;;;;;37.50;35.00;;;;;10.57;100.00;99819.34;5053087;28;8882;-78
2022/04/28 02:39:22;;;;;;;;;38.25;34.75;;;;;10.41;100.00;99818.44;5053248;28;8884;-77
2022/04/28 02:41:53;;;;;;;;;37.25;35.75;;;;;10.33;100.00;99815.78;5078026;28;8857;-77
2022/04/28 02:44:23;;;;;;;;;38.50;37.00;;;;;10.19;100.00;99827.81;5073009;28;8833;-79
2022/04/28 02:46:51;;;;;;;;;38.75;37.00;;;;;10.30;100.00;99821.88;5088999;28;8861;-79
2022/04/28 02:49:31;;;;;;;;;44.25;37.50;;;;;10.40;100.00;99814.97;5072989;28;8857;-79
2022/04/28 02:52:05;;;;;;;;;38.50;34.75;;;;;10.34;100.00;99818.41;5056363;28;8840;-77
2022/04/28 02:54:34;;;;;;;;;28.25;25.00;;;;;10.09;100.00;99821.69;5035740;28;8856;-79
2022/04/28 02:57:04;;;;;;;;;41.75;38.00;;;;;9.92;100.00;99825.09;5069237;28;9005;-78
2022/04/28 02:59:34;;;;;;;;;39.25;35.00;;;;;9.78;100.00;99815.44;5069196;28;8874;-77
2022/04/28 03:02:03;;;;;;;;;40.00;37.00;;;;;9.68;100.00;99825.78;5052737;28;8878;-78
2022/04/28 03:04:33;;;;;;;;;38.00;34.50;;;;;9.84;100.00;99821.53;5069458;28;8949;-77
2022/04/28 03:12:37;;;;;;;;;38.25;36.00;;;;;9.63;100.00;99814.44;5069665;28;8866;-78
2022/04/28 03:15:27;;;;;;;;;38.50;37.25;;;;;9.72;100.00;99811.91;5071028;28;8866;-77
2022/04/28 03:17:56;;;;;;;;;35.75;35.75;;;;;9.99;100.00;99802.53;5088479;28;8937;-78
2022/04/28 03:20:24;;;;;;;;;33.75;32.25;;;;;10.04;100.00;99808.66;5052571;28;8872;-78
2022/04/28 03:22:53;;;;;;;;;55.00;45.00;;;;;9.93;100.00;99799.91;5036120;28;8868;-78
2022/04/28 03:25:23;;;;;;;;;39.00;36.00;;;;;9.92;100.00;99805.97;5083992;28;8920;-78
2022/04/28 03:27:56;;;;;;;;;35.50;34.25;;;;;9.71;100.00;99811.91;5068799;28;8866;-77
2022/04/28 03:30:27;;;;;;;;;36.00;32.00;;;;;9.66;100.00;99816.19;5052632;28;8856;-78
2022/04/28 03:33:09;;;;;;;;;38.00;34.25;;;;;9.63;100.00;99814.44;5052346;28;8937;-79
2022/04/28 03:35:39;;;;;;;;;35.75;30.50;;;;;9.42;100.00;99820.38;5074440;28;8849;-78
2022/04/28 03:38:13;;;;;;;;;36.25;34.75;;;;;9.60;100.00;99821.38;5088695;28;8845;-78
2022/04/28 03:40:44;;;;;;;;;37.25;36.00;;;;;9.43;100.00;99818.63;5071186;28;8880;-78
2022/04/28 03:43:13;;;;;;;;;41.25;36.25;;;;;9.66;100.00;99826.59;5068448;28;8859;-78
2022/04/28 03:45:44;;;;;;;;;39.75;36.00;;;;;9.66;100.00;99816.19;5068228;28;8844;-78
2022/04/28 03:48:19;;;;;;;;;40.75;37.50;;;;;9.77;100.00;99830.16;5068488;28;8958;-78
2022/04/28 03:50:48;;;;;;;;;36.25;33.50;;;;;9.56;100.00;99831.78;5051723;28;8840;-77
2022/04/28 03:53:16;;;;;;;;;38.00;35.25;;;;;9.52;100.00;99839.53;5082619;28;8955;-77
2022/04/28 03:55:45;;;;;;;;;38.75;33.75;;;;;9.16;100.00;99841.81;5051698;28;8986;-77
2022/04/28 03:58:14;;;;;;;;;39.75;38.75;;;;;8.90;100.00;99846.75;5064394;28;9018;-77
2022/04/28 04:00:49;;;;;;;;;40.25;35.25;;;;;8.83;100.00;99850.13;5066579;28;8860;-77
2022/04/28 04:03:30;;;;;;;;;39.50;38.50;;;;;9.04;100.00;99843.44;5018319;28;9070;-77
2022/04/28 04:05:59;;;;;;;;;45.25;40.75;;;;;9.04;100.00;99843.44;5033190;28;8864;-77
2022/04/28 04:08:28;;;;;;;;;40.75;37.75;;;;;8.96;100.00;99844.22;5066216;28;8882;-77
2022/04/28 04:11:04;;;;;;;;;46.50;40.25;;;;;9.14;100.00;99845.25;5049645;28;8913;-78
2022/04/28 04:13:32;;;;;;;;;37.50;32.50;;;;;9.26;100.00;99848.00;5032283;28;8848;-78
2022/04/28 04:16:02;;;;;;;;;41.50;37.50;;;;;9.47;100.00;99846.41;5000349;28;8863;-78
2022/04/28 04:18:31;;;;;;;;;39.00;33.25;;;;;9.84;100.00;99847.59;5046105;28;8854;-80
2022/04/28 04:21:08;;;;;;;;;43.50;35.75;;;;;10.13;100.00;99839.97;5046596;28;8854;-78
2022/04/28 04:23:37;;;;;;;;;40.75;35.50;;;;;10.31;100.00;99828.81;5013220;28;8941;-78
2022/04/28 04:26:05;;;;;;;;;87.25;65.00;;;;;10.58;100.00;99821.09;5029723;28;8882;-77
2022/04/28 04:28:37;;;;;;;;;41.50;38.00;;;;;10.80;100.00;99820.31;5046128;28;8919;-78
2022/04/28 04:34:45;;;;;;;;;33.75;28.25;;;;;11.09;100.00;99817.75;5009626;28;8860;-77
2022/04/28 04:37:17;;;;;;;;;41.25;36.50;;;;;11.05;100.00;99817.75;5029358;28;9730;-77
2022/04/28 04:39:46;;;;;;;;;49.25;42.00;;;;;11.06;99.94;99815.16;5036405;28;9049;-77
2022/04/28 04:42:15;;;;;;;;;46.50;41.25;;;;;11.12;100.00;99817.78;5049140;28;8850;-77
2022/04/28 04:44:44;;;;;;;;;48.25;42.75;;;;;10.97;99.65;99822.09;5031717;28;8939;-77
2022/04/28 04:47:20;;;;;;;;;42.25;38.00;;;;;11.23;100.00;99823.03;5033002;28;8922;-79
2022/04/28 04:50:18;;;;;;;;;32.50;32.25;;;;;11.46;100.00;99815.19;4984540;28;8859;-79
2022/04/28 04:53:04;;;;;;;;;43.75;38.25;;;;;11.66;100.00;99809.97;4996821;28;8864;-79
2022/04/28 04:55:33;;;;;;;;;33.50;32.75;;;;;11.73;98.74;99810.81;5009275;28;8968;-78
2022/04/28 04:58:07;;;;;;;;;37.50;33.50;;;;;11.88;99.38;99817.78;4993446;28;8834;-78
2022/04/28 05:00:36;;;;;;;;;38.00;34.25;;;;;11.92;97.25;99809.09;4944581;28;9004;-78
2022/04/28 05:03:35;;;;;;;;;36.20;33.80;;;;;11.82;94.18;99820.41;5025842;28;8861;-77
2022/04/28 05:06:25;;;;;;;;;35.75;31.25;;;;;11.50;92.95;99816.94;4992569;28;8877;-77
2022/04/28 05:09:13;;;;;;;;;36.75;33.50;;;;;11.53;95.40;99818.69;4992461;28;8951;-78
2022/04/28 05:11:41;;;;;;;;;38.25;30.75;;;;;11.62;93.29;99812.56;5005319;28;8884;-78
2022/04/28 05:14:15;;;;;;;;;40.00;36.00;;;;;11.59;92.81;99816.06;5005794;28;8836;-78
2022/04/28 05:16:44;;;;;;;;;33.25;32.50;;;;;11.75;94.72;99814.31;4959627;28;8832;-78
2022/04/28 05:19:30;;;;;;;;;35.00;34.25;;;;;11.70;92.50;99826.50;4990293;28;8840;-78
2022/04/28 05:22:07;;;;;;;;;40.50;36.00;;;;;11.86;95.11;99820.38;4986878;28;8810;-78
2022/04/28 05:24:55;;;;;;;;;38.50;35.75;;;;;12.00;94.84;99824.75;4986883;28;8965;-77
2022/04/28 05:27:42;;;;;;;;;37.00;34.75;;;;;12.07;94.25;99829.97;5036959;28;8862;-79
2022/04/28 05:30:29;;;;;;;;;38.50;33.00;;;;;12.11;89.37;99840.44;5047930;28;9627;-79
2022/04/28 05:33:09;;;;;;;;;32.75;31.25;;;;;11.59;89.61;99842.19;5046793;28;8858;-78
2022/04/28 05:36:01;;;;;;;;;32.00;30.50;;;;;11.52;93.45;99848.28;5008863;28;8834;-80
2022/04/28 05:38:30;;;;;;;;;31.20;27.80;;;;;11.58;94.08;99848.28;5009255;28;9715;-78
2022/04/28 05:40:59;;;;;;;;;31.50;29.75;;;;;11.61;90.99;99844.81;4984285;28;8875;-74
2022/04/28 05:46:14;;;;;;;;;35.80;33.80;;;;;11.79;92.51;99849.16;5008582;28;8911;-71
2022/04/28 05:48:43;;;;;;;;;33.80;32.40;;;;;11.73;91.21;99847.41;5024069;28;8850;-71
2022/04/28 05:51:14;;;;;;;;;30.80;29.40;;;;;11.85;89.98;99852.63;5025055;28;8874;-72
2022/04/28 05:53:43;;;;;;;;;38.60;31.00;;;;;11.68;89.70;99855.25;5024715;28;8838;-74
2022/04/28 05:56:11;;;;;;;;;35.25;33.50;;;;;11.70;88.23;99847.41;4963437;28;8855;-73
2022/04/28 05:58:49;;;;;;;;;32.20;30.00;;;;;11.01;92.69;99863.00;4976187;28;8850;-72
2022/04/28 06:01:55;;;;;;;;;33.50;31.25;;;;;11.33;93.59;99855.22;5041353;28;8891;-74
2022/04/28 06:04:28;;;;;;;;;37.00;35.50;;;;;11.37;93.29;99856.09;5044183;28;8824;-71
2022/04/28 06:07:00;;;;;;;;;35.00;31.25;;;;;11.25;90.54;99868.28;5025865;28;8870;-74
2022/04/28 06:09:33;;;;;;;;;38.25;34.50;;;;;11.53;92.64;99860.47;5010376;28;8892;-71
2022/04/28 06:12:02;;;;;;;;;37.40;32.20;;;;;11.49;92.02;99856.09;5024172;28;8846;-74
2022/04/28 06:14:48;;;;;;;;;31.75;29.25;;;;;11.74;91.92;99856.09;5065330;28;8836;-73
2022/04/28 06:17:51;;;;;;;;;28.00;22.75;;;;;12.05;93.78;99852.63;5043932;28;8899;-78
2022/04/28 06:20:20;;;;;;;;;44.25;38.75;;;;;12.31;93.63;99853.47;5045519;28;8854;-79
2022/04/28 06:23:07;;;;;;;;;38.00;34.80;;;;;12.33;89.14;99855.19;5015085;28;8858;-79
2022/04/28 06:25:41;;;;;;;;;34.75;33.25;;;;;12.55;90.20;99862.97;5044770;28;8862;-79
2022/04/28 06:28:10;;;;;;;;;36.20;33.00;;;;;12.03;88.15;99846.53;5015729;28;8947;-79
2022/04/28 06:30:42;;;;;;;;;37.75;33.00;;;;;12.33;89.95;99857.81;5031715;28;8854;-78
2022/04/28 06:33:22;;;;;;;;;31.00;27.75;;;;;12.31;88.96;99858.69;5031757;28;8865;-78
2022/04/28 06:35:58;;;;;;;;;36.00;32.80;;;;;12.41;89.16;99857.78;5063018;28;8856;-78
2022/04/28 06:38:35;;;;;;;;;33.20;30.80;;;;;12.16;85.35;99857.84;5035217;28;8882;-78
2022/04/28 06:41:06;;;;;;;;;39.80;34.40;;;;;12.03;87.21;99866.59;5034557;28;8860;-79
2022/04/28 06:43:37;;;;;;;;;32.60;30.00;;;;;12.26;88.90;99863.91;5034984;28;8864;-79
2022/04/28 06:46:24;;;;;;;;;33.40;30.80;;;;;12.26;86.17;99875.25;5040488;28;8832;-78
2022/04/28 06:49:05;;;;;;;;;31.20;30.40;;;;;12.30;86.23;99870.88;5067940;28;8844;-78
2022/04/28 06:51:54;;;;;;;;;35.00;31.75;;;;;12.35;85.42;99870.88;5003302;28;8855;-79
2022/04/28 06:54:43;;;;;;;;;29.20;25.80;;;;;12.05;89.77;99873.53;5008579;28;8847;-78
2022/04/28 06:57:15;;;;;;;;;38.50;35.25;;;;;12.12;87.76;99868.28;4991988;28;9441;-78
2022/04/28 06:59:44;;;;;;;;;37.50;33.50;;;;;11.56;89.69;99872.66;4991645;28;8862;-79
2022/04/28 07:02:17;;;;;;;;;34.50;31.75;;;;;11.57;89.65;99877.00;4976080;28;8867;-80
2022/04/28 07:04:47;;;;;;;;;39.25;36.50;;;;;11.13;91.54;99883.88;4992157;28;8901;-77
2022/04/28 07:07:20;;;;;;;;;34.00;32.25;;;;;11.40;93.35;99888.31;4991928;28;8848;-80
2022/04/28 07:09:54;;;;;;;;;33.25;30.00;;;;;11.41;92.56;99883.97;4975972;28;8847;-78
2022/04/28 07:12:45;;;;;;;;;38.80;31.80;;;;;11.48;93.64;99889.19;4954136;28;8863;-78
2022/04/28 07:15:35;;;;;;;;;36.00;34.20;;;;;11.58;92.19;99878.75;5009026;28;8867;-78
2022/04/28 07:18:25;;;;;;;;;39.25;34.75;;;;;11.53;92.10;99884.00;5008155;28;8852;-82
2022/04/28 07:20:54;;;;;;;;;33.75;33.75;;;;;11.77;91.33;99892.69;5008244;28;8949;-79
2022/04/28 07:23:25;;;;;;;;;30.50;28.00;;;;;11.70;89.86;99881.34;4979860;28;8856;-80
2022/04/28 07:25:55;;;;;;;;;41.25;33.75;;;;;11.58;91.62;99891.81;4991642;28;8860;-82
2022/04/28 07:28:25;;;;;;;;;39.25;33.25;;;;;11.84;92.88;99887.47;5014301;28;8850;-80
2022/04/28 07:31:03;;;;;;;;;40.25;36.50;;;;;11.81;91.50;99889.19;5048847;28;8867;-80
2022/04/28 07:34:10;;;;;;;;;40.50;36.25;;;;;11.82;93.26;99893.56;5011316;28;8842;-79
2022/04/28 07:36:57;;;;;;;;;38.00;33.00;;;;;11.99;92.23;99885.75;5011604;28;9035;-81
2022/04/28 07:39:29;;;;;;;;;42.25;36.75;;;;;12.07;90.87;99887.47;5027281;28;8892;-77
2022/04/28 07:42:17;;;;;;;;;34.25;33.25;;;;;12.27;89.57;99889.22;4988102;28;8870;-78
2022/04/28 07:44:49;;;;;;;;;42.25;37.00;;;;;12.43;89.26;99890.91;4971475;28;8958;-79
2022/04/28 07:47:18;;;;;;;;;39.75;36.50;;;;;12.55;89.46;99890.00;4987632;28;8842;-78
2022/04/28 07:50:05;;;;;;;;;36.00;30.60;;;;;12.11;91.12;99884.88;4959921;28;8918;-79
2022/04/28 07:52:35;;;;;;;;;35.40;32.60;;;;;12.15;91.26;99891.81;4971473;28;9711;-78
2022/04/28 07:55:05;;;;;;;;;43.50;36.25;;;;;12.17;88.80;99890.94;4954841;28;9747;-79
2022/04/28 07:57:35;;;;;;;;;37.75;35.50;;;;;11.71;89.92;99896.19;4971112;28;8979;-79
2022/04/28 08:00:07;;;;;;;;;40.25;37.50;;;;;11.24;91.42;99890.00;4971525;28;8877;-79
2022/04/28 08:02:44;;;;;;;;;42.40;35.60;;;;;11.14;93.14;99903.91;4971198;28;9601;-79
2022/04/28 08:05:17;;;;;;;;;36.00;35.00;;;;;10.87;95.19;99912.53;4954074;28;8842;-79
2022/04/28 08:07:46;;;;;;;;;40.50;36.00;;;;;10.78;96.50;99910.75;4955372;28;8862;-78
2022/04/28 08:10:16;;;;;;;;;38.25;33.75;;;;;10.84;94.97;99915.97;4971013;28;8888;-78
2022/04/28 08:12:47;;;;;;;;;35.25;32.75;;;;;10.87;95.78;99907.31;4979621;28;8845;-79
2022/04/28 08:15:40;;;;;;;;;39.75;32.50;;;;;11.09;95.43;99910.84;4968142;28;8876;-80
2022/04/28 08:18:09;;;;;;;;;46.00;36.50;;;;;11.32;94.67;99910.91;4951690;28;8892;-79
2022/04/28 08:20:41;;;;;;;;;34.25;30.75;;;;;11.50;95.65;99912.69;4951968;28;8912;-77
2022/04/28 08:23:11;;;;;;;;;38.25;36.50;;;;;11.52;92.68;99903.13;4968554;28;8915;-79
2022/04/28 08:25:40;;;;;;;;;40.40;36.00;;;;;11.73;91.54;99917.09;4967717;28;8914;-79
2022/04/28 08:28:11;;;;;;;;;41.20;32.60;;;;;11.45;92.87;99920.50;4951916;28;8880;-79
2022/04/28 08:30:40;;;;;;;;;38.50;36.25;;;;;11.87;94.96;99915.31;4936503;28;8856;-78
2022/04/28 08:33:09;;;;;;;;;34.20;30.80;;;;;11.94;92.43;99904.03;4951768;28;8881;-78
2022/04/28 08:35:38;;;;;;;;;39.25;35.75;;;;;12.25;92.99;99897.06;4912862;28;8995;-79
2022/04/28 08:38:07;;;;;;;;;31.40;30.80;;;;;12.69;93.89;99900.44;5010814;28;8833;-81
2022/04/28 08:40:36;;;;;;;;;33.80;32.80;;;;;12.85;90.53;99899.50;5010833;28;8975;-80
2022/04/28 08:43:08;;;;;;;;;38.00;34.00;;;;;13.11;87.50;99900.25;4978908;28;8966;-78
2022/04/28 08:46:50;;;;;;;;;40.75;35.50;;;;;13.05;84.66;99901.16;4978216;28;9032;-81
2022/04/28 08:48:44;;;;;;;;;31.20;30.60;;;;;13.53;88.75;99899.13;5010174;28;9626;-80
2022/04/28 08:51:18;;;;;;;;;35.40;32.40;;;;;13.28;85.35;99906.25;4994075;28;8872;-80
2022/04/28 08:53:50;;;;;;;;;40.25;35.50;;;;;13.04;86.43;99907.25;5038445;28;8856;-79
2022/04/28 08:56:21;;;;;;;;;28.80;27.80;;;;;12.79;85.42;99906.50;5047072;28;8888;-79
2022/04/28 08:58:50;;;;;;;;;27.40;26.80;;;;;12.87;84.84;99912.56;5063762;28;8859;-81
2022/04/28 09:01:25;;;;;;;;;26.80;26.20;;;;;12.16;88.23;99912.75;5031136;28;8876;-78
2022/04/28 09:04:13;;;;;;;;;33.20;27.60;;;;;11.79;91.52;99917.94;5046795;28;8997;-79
2022/04/28 09:07:00;;;;;;;;;33.60;31.00;;;;;11.31;92.40;99920.50;5048701;28;8851;-81
2022/04/28 09:09:48;;;;;;;;;34.40;30.60;;;;;11.28;94.58;99923.06;5048832;28;8863;-80
2022/04/28 09:12:35;;;;;;;;;33.20;31.40;;;;;11.37;94.93;99931.81;5047080;28;8947;-78
2022/04/28 09:15:30;;;;;;;;;27.00;25.40;;;;;11.47;94.26;99930.97;5030967;28;8842;-78
2022/04/28 09:18:11;;;;;;;;;31.40;30.60;;;;;11.48;94.13;99936.19;5030656;28;9609;-80
2022/04/28 09:20:40;;;;;;;;;31.20;25.40;;;;;11.47;96.03;99939.69;5046918;28;8862;-79
2022/04/28 09:23:12;;;;;;;;;36.40;31.80;;;;;11.21;95.70;99942.22;4989407;28;8868;-79
2022/04/28 09:25:46;;;;;;;;;38.75;35.75;;;;;11.19;97.94;99946.56;4958849;28;8844;-77
2022/04/28 09:28:15;;;;;;;;;31.40;31.20;;;;;11.24;96.98;99950.03;4973727;28;8954;-80
2022/04/28 09:30:51;;;;;;;;;40.50;36.00;;;;;11.34;96.96;99943.09;4959580;28;8840;-79
2022/04/28 09:33:41;;;;;;;;;35.80;30.60;;;;;11.38;95.63;99939.66;5005743;28;8864;-78
2022/04/28 09:36:31;;;;;;;;;37.00;34.25;;;;;11.44;95.36;99942.28;4966874;28;8844;-78
2022/04/28 09:42:29;;;;;;;;;43.75;36.00;;;;;11.42;96.63;99949.25;4932015;29;8851;-79
2022/04/28 09:44:59;;;;;;;;;41.00;37.50;;;;;11.12;96.59;99953.50;4931750;29;8957;-78
2022/04/28 09:47:31;;;;;;;;;40.00;37.25;;;;;11.28;98.79;99946.56;4915834;29;8851;-80
2022/04/28 09:50:01;;;;;;;;;41.25;37.50;;;;;11.16;95.97;99959.59;4931550;29;8870;-79
2022/04/28 09:52:44;;;;;;;;;30.25;29.75;;;;;11.01;97.76;99954.31;4931130;29;8989;-78
2022/04/28 09:55:52;;;;;;;;;39.00;35.50;;;;;10.90;98.67;99960.34;4968081;28;9603;-78
2022/04/28 09:58:33;;;;;;;;;40.25;37.50;;;;;10.99;100.00;99954.31;4970574;28;8954;-82
2022/04/28 10:01:04;;;;;;;;;42.75;37.50;;;;;11.17;98.69;99953.53;4954369;28;8844;-80
2022/04/28 10:03:40;;;;;;;;;37.00;32.20;;;;;10.84;98.40;99957.72;4939858;28;9660;-78
2022/04/28 10:06:15;;;;;;;;;41.50;37.25;;;;;10.88;99.62;99950.78;4908705;28;8970;-78
2022/04/28 10:08:57;;;;;;;;;44.00;38.50;;;;;10.84;99.58;99949.91;4954087;28;9603;-79
2022/04/28 10:11:27;;;;;;;;;34.50;30.25;;;;;10.89;99.08;99956.00;4970126;28;8852;-80
2022/04/28 10:14:00;;;;;;;;;48.00;41.50;;;;;10.81;100.00;99952.50;4991695;28;8844;-79
2022/04/28 10:16:28;;;;;;;;;43.50;38.75;;;;;10.85;100.00;99951.66;4977720;28;8844;-78
2022/04/28 10:19:03;;;;;;;;;51.25;40.75;;;;;10.91;99.61;99954.28;4993803;28;8982;-78
2022/04/28 10:21:41;;;;;;;;;43.00;38.50;;;;;11.03;99.37;99949.97;5013622;28;8903;-78
2022/04/28 10:33:11;;;;;;;;;45.25;38.75;;;;;11.22;97.62;99945.69;5050245;28;8924;-79
2022/04/28 10:35:43;;;;;;;;;45.50;40.25;;;;;11.39;96.75;99945.75;5034522;28;8859;-79
2022/04/28 10:38:18;;;;;;;;;52.25;42.75;;;;;11.44;96.63;99942.28;5050237;28;8846;-78
2022/04/28 10:40:55;;;;;;;;;49.75;40.25;;;;;11.82;96.27;99944.09;5050123;28;8891;-79
2022/04/28 10:43:25;;;;;;;;;39.75;34.50;;;;;12.18;92.44;99941.50;5017145;28;8943;-77
2022/04/28 10:45:56;;;;;;;;;39.75;36.75;;;;;12.11;90.39;99934.53;5012373;28;8884;-78
2022/04/28 10:48:33;;;;;;;;;36.40;34.20;;;;;11.95;91.57;99936.28;4963601;28;8880;-79
2022/04/28 10:51:23;;;;;;;;;38.00;35.75;;;;;11.95;89.90;99938.91;5012159;28;8960;-79
2022/04/28 10:54:10;;;;;;;;;35.75;35.00;;;;;12.37;91.32;99939.75;4963739;28;8842;-79
2022/04/28 10:57:01;;;;;;;;;26.40;25.80;;;;;11.95;88.15;99949.38;5002405;28;9628;-79
2022/04/28 10:59:34;;;;;;;;;34.20;33.40;;;;;12.14;90.78;99951.09;5031766;28;8925;-79
2022/04/28 11:02:49;;;;;;;;;36.80;34.00;;;;;11.97;91.03;99945.88;5048380;28;8998;-77
2022/04/28 11:05:35;;;;;;;;;34.60;34.40;;;;;11.95;91.17;99949.38;5015278;28;8824;-80
2022/04/28 11:08:04;;;;;;;;;30.75;29.00;;;;;11.73;91.54;99958.88;5030879;28;8925;-78
2022/04/28 11:11:07;;;;;;;;;34.60;33.00;;;;;11.95;90.43;99946.75;4999837;28;9046;-79
2022/04/28 11:13:37;;;;;;;;;38.20;33.20;;;;;12.07;90.08;99950.22;5031137;28;8851;-78
2022/04/28 11:16:05;;;;;;;;;34.60;32.60;;;;;12.39;92.25;99954.56;5016726;28;9072;-79
2022/04/28 11:18:35;;;;;;;;;39.50;36.75;;;;;12.56;89.40;99954.53;5052164;28;8831;-77
2022/04/28 11:21:05;;;;;;;;;42.50;36.75;;;;;12.39;90.57;99965.00;5049556;28;8937;-80
2022/04/28 11:23:40;;;;;;;;;36.75;34.75;;;;;12.70;90.38;99958.84;5032499;28;8858;-77
2022/04/28 11:26:29;;;;;;;;;33.00;29.40;;;;;12.93;90.01;99958.78;5049379;28;8843;-83
2022/04/28 11:29:19;;;;;;;;;36.60;33.20;;;;;13.04;89.33;99962.22;5049755;28;8866;-80
2022/04/28 11:31:48;;;;;;;;;41.00;37.00;;;;;12.88;87.77;99964.03;5014332;28;9596;-79
2022/04/28 11:34:18;;;;;;;;;39.75;37.00;;;;;12.67;87.46;99962.34;5012225;28;8856;-78
2022/04/28 11:36:48;;;;;;;;;38.25;36.25;;;;;12.61;88.56;99970.22;5068731;28;8824;-80
2022/04/28 11:39:16;;;;;;;;;39.75;34.75;;;;;12.79;89.55;99978.00;5047256;28;8941;-81
2022/04/28 11:41:52;;;;;;;;;42.50;38.75;;;;;12.48;89.90;99978.09;5047909;28;8856;-79
2022/04/28 11:44:21;;;;;;;;;49.75;40.50;;;;;12.50;90.54;99979.84;5067109;28;8899;-80
2022/04/28 11:46:51;;;;;;;;;47.00;40.00;;;;;12.33;91.01;99972.88;5067392;28;8845;-79
2022/04/28 11:49:20;;;;;;;;;42.75;37.75;;;;;12.53;91.24;99975.44;5067375;28;8842;-80
2022/04/28 11:51:48;;;;;;;;;48.75;39.00;;;;;12.84;89.27;99965.78;5042461;28;8904;-78
2022/04/28 11:54:23;;;;;;;;;36.75;34.50;;;;;13.26;90.23;99969.13;5031824;28;8929;-80
2022/04/28 11:57:09;;;;;;;;;48.25;40.00;;;;;13.13;85.91;99967.44;5047549;28;8835;-77
2022/04/28 11:59:38;;;;;;;;;41.50;34.00;;;;;12.66;88.12;99965.84;4997409;28;8851;-79
2022/04/28 12:02:26;;;;;;;;;41.75;36.25;;;;;12.44;89.28;99975.50;5046944;28;8851;-80
2022/04/28 12:04:55;;;;;;;;;51.00;42.25;;;;;12.55;89.45;99968.50;4981414;28;8847;-78
2022/04/28 12:07:28;;;;;;;;;40.00;35.00;;;;;12.67;89.52;99968.44;5030513;28;8832;-78
2022/04/28 12:15:33;;;;;;;;;33.50;32.00;;;;;12.27;91.27;99968.50;5036878;28;8968;-78
2022/04/28 12:20:57;;;;;;;;;45.25;36.25;;;;;11.97;92.60;99968.53;5049126;28;9595;-79
2022/04/28 12:23:30;;;;;;;;;41.50;37.50;;;;;12.12;92.74;99963.31;5037776;28;8840;-79
2022/04/28 12:26:00;;;;;;;;;44.50;40.25;;;;;12.24;92.49;99962.41;5075326;28;8844;-80
2022/04/28 12:28:35;;;;;;;;;43.25;37.75;;;;;11.92;94.11;99970.25;5057490;28;8863;-77
2022/04/28 12:31:04;;;;;;;;;48.25;39.00;;;;;12.03;95.58;99958.94;5056085;28;8851;-80
2022/04/28 12:33:34;;;;;;;;;48.00;39.00;;;;;11.95;95.07;99965.91;5052153;28;8867;-79
2022/04/28 12:36:05;;;;;;;;;42.75;37.25;;;;;12.19;96.16;99954.59;5047346;28;8952;-79